Time;durP1;ratioP1;P1;durP2;ratioP2;P2;SDS_P1;SDS_P2;PMS_P1;PMS_P2;Temp;Humidity;BMP_temperature;BMP_pressure;BME280_temperature;BME280_humidity;BME280_pressure;Samples;Min_cycle;Max_cycle;Signal;HPM_P1;HPM_P2
2021/11/13 00:02:44;;;;;;;;;;;;;;;;;;;;;
2021/11/13 00:06:31;;;;;;;;;;;;;;;;;;;;;
2021/11/13 00:12:34;;;;;;;12.85;2.03;;;;;;;8.61;100.00;100974.47;6205505;23;20034;-95
2021/11/13 00:19:30;;;;;;;;;;;;;;;;;;;;;
2021/11/13 00:27:34;;;;;;;;;;;;;;;;;;;;;
2021/11/13 00:34:45;;;;;;;;;;;;;;;;;;;;;
2021/11/13 00:38:54;;;;;;;;;;;;;;;;;;;;;
2021/11/13 00:41:42;;;;;;;;;;;;;;;;;;;;;
2021/11/13 00:49:34;;;;;;;;;;;;;;;;;;;;;
2021/11/13 01:00:55;;;;;;;;;;;;;;;;;;;;;
2021/11/13 01:41:26;;;;;;;;;;;;;;;;;;;;;
2021/11/13 01:49:22;;;;;;;;;;;;;;;;;;;;;
2021/11/13 02:00:53;;;;;;;;;;;;;;;;;;;;;
2021/11/13 02:08:46;;;;;;;2.28;0.70;;;;;;;9.41;100.00;101015.28;5774631;24;20123;-95
2021/11/13 02:22:57;;;;;;;0.57;0.40;;;;;;;9.42;100.00;101030.38;6101778;23;20012;-96
2021/11/13 02:26:12;;;;;;;;;;;;;;;;;;;;;
2021/11/13 02:29:00;;;;;;;;;;;;;;;;;;;;;
2021/11/13 02:31:39;;;;;;;1.58;0.70;;;;;;;9.45;100.00;101043.47;6226252;22;20011;-95
2021/11/13 02:34:13;;;;;;;0.43;0.38;;;;;;;9.45;100.00;101046.16;6198938;22;20440;-93
2021/11/13 02:36:44;;;;;;;0.50;0.40;;;;;;;9.60;100.00;101061.66;6200688;22;20331;-93
2021/11/13 02:39:23;;;;;;;0.40;0.40;;;;;;;9.55;100.00;101056.78;6225699;22;20031;-94
2021/11/13 02:41:52;;;;;;;1.38;0.50;;;;;;;9.54;100.00;101057.75;6224600;22;20004;-94
2021/11/13 02:44:18;;;;;;;1.95;0.40;;;;;;;9.51;100.00;101052.72;6224416;22;20008;-93
2021/11/13 02:46:57;;;;;;;0.45;0.35;;;;;;;9.56;100.00;101058.44;6223634;22;20007;-93
2021/11/13 02:49:24;;;;;;;0.50;0.45;;;;;;;9.63;100.00;101066.69;6200495;22;20393;-94
2021/11/13 02:51:50;;;;;;;3.95;0.73;;;;;;;9.52;100.00;101054.41;6223341;22;20011;-93
2021/11/13 02:57:33;;;;;;;;;;;;;;;;;;;;;
2021/11/13 03:00:08;;;;;;;0.82;0.60;;;;;;;9.55;100.00;101056.78;6226677;22;20003;-94
2021/11/13 03:03:05;;;;;;;1.00;0.50;;;;;;;9.50;100.00;101056.41;6218384;22;20055;-95
2021/11/13 03:05:40;;;;;;;;;;;;;;;9.55;100.00;101067.53;6200772;22;20031;-95
2021/11/13 03:08:08;;;;;;;2.78;0.60;;;;;;;9.53;100.00;101066.84;6223700;22;19918;-94
2021/11/13 03:10:43;;;;;;;0.80;0.40;;;;;;;9.38;100.00;101055.84;6223310;22;20004;-95
2021/11/13 03:13:19;;;;;;;1.10;0.50;;;;;;;9.48;100.00;101071.00;6224293;22;20003;-94
2021/11/13 03:15:50;;;;;;;0.43;0.40;;;;;;;9.34;100.00;101049.13;6198895;22;20014;-95
2021/11/13 03:18:19;;;;;;;1.83;0.60;;;;;;;9.36;100.00;101059.69;6199683;22;20004;-94
2021/11/13 03:20:51;;;;;;;2.58;0.50;;;;;;;9.32;100.00;101059.19;6199910;22;20016;-94
2021/11/13 03:23:25;;;;;;;1.52;0.50;;;;;;;9.41;100.00;101070.78;6200315;22;20030;-94
2021/11/13 03:26:03;;;;;;;2.28;0.77;;;;;;;9.36;100.00;101059.69;6224561;22;20448;-94
2021/11/13 03:28:33;;;;;;;2.25;0.60;;;;;;;9.40;100.00;101071.81;6199099;22;20008;-95
2021/11/13 03:31:02;;;;;;;1.70;0.45;;;;;;;9.37;100.00;101064.09;6199167;22;20035;-94
2021/11/13 03:33:36;;;;;;;0.95;0.70;;;;;;;9.45;100.00;101069.47;6199668;22;20026;-94
2021/11/13 03:36:06;;;;;;;3.83;0.70;;;;;;;9.36;100.00;101060.53;6199352;22;20098;-96
2021/11/13 03:38:39;;;;;;;1.52;0.68;;;;;;;9.41;100.00;101071.63;6200694;22;20062;-94
2021/11/13 03:41:06;;;;;;;4.03;0.90;;;;;;;9.46;100.00;101092.63;6198765;22;20034;-95
2021/11/13 03:43:42;;;;;;;3.10;0.75;;;;;;;9.45;100.00;101080.22;6201587;22;20007;-95
2021/11/13 03:46:08;;;;;;;2.13;0.75;;;;;;;9.45;100.00;101080.22;6223564;22;20004;-95
2021/11/13 03:48:43;;;;;;;2.53;0.80;;;;;;;9.43;100.00;101069.63;6198392;22;20004;-95
2021/11/13 03:51:14;;;;;;;1.23;0.73;;;;;;;9.42;100.00;101073.34;6198487;22;20367;-94
2021/11/13 03:53:43;;;;;;;1.75;0.70;;;;;;;9.40;100.00;101079.84;6223209;22;19999;-94
2021/11/13 03:56:09;;;;;;;1.58;0.70;;;;;;;9.46;100.00;101095.31;6198418;22;20004;-94
2021/11/13 03:58:35;;;;;;;0.70;0.50;;;;;;;9.44;100.00;101089.25;6223140;22;20082;-93
2021/11/13 04:01:01;;;;;;;1.70;0.50;;;;;;;9.50;100.00;101106.56;6223381;22;20012;-94
2021/11/13 04:03:27;;;;;;;4.50;1.02;;;;;;;9.45;100.00;101097.16;6222885;22;20008;-94
2021/11/13 04:05:57;;;;;;;2.33;0.70;;;;;;;9.39;100.00;101080.84;6198994;22;20030;-95
2021/11/13 04:08:23;;;;;;;4.80;0.70;;;;;;;9.39;100.00;101080.84;6199377;22;20011;-95
2021/11/13 04:10:52;;;;;;;0.80;0.50;;;;;;;9.49;100.00;101102.22;6224515;22;20008;-94
2021/11/13 04:13:18;;;;;;;1.50;0.70;;;;;;;9.36;100.00;101083.84;6223903;22;20008;-94
2021/11/13 04:15:44;;;;;;;1.80;0.80;;;;;;;9.45;100.00;101099.84;6224018;22;20007;-95
2021/11/13 04:18:09;;;;;;;1.67;0.50;;;;;;;9.49;100.00;101111.09;6199236;22;20023;-93
2021/11/13 04:20:35;;;;;;;0.82;0.50;;;;;;;9.36;100.00;101102.63;6224846;22;20007;-93
2021/11/13 04:23:03;;;;;;;2.30;0.60;;;;;;;9.39;100.00;101110.38;6224074;22;20019;-93
2021/11/13 04:25:29;;;;;;;0.95;0.60;;;;;;;9.36;100.00;101119.56;6201517;22;20015;-94
2021/11/13 04:27:54;;;;;;;5.80;0.60;;;;;;;9.28;100.00;101111.47;6225555;22;20008;-93
2021/11/13 04:30:20;;;;;;;6.45;1.15;;;;;;;9.25;100.00;101115.31;6200963;22;20012;-95
2021/11/13 04:32:48;;;;;;;4.13;0.90;;;;;;;9.25;100.00;101118.00;6201126;22;20011;-93
2021/11/13 04:35:22;;;;;;;5.43;1.13;;;;;;;9.23;100.00;101122.72;6201991;22;20012;-93
2021/11/13 04:37:54;;;;;;;4.30;0.68;;;;;;;9.27;100.00;101127.75;6202528;22;20425;-94
2021/11/13 04:40:22;;;;;;;1.90;0.60;;;;;;;9.20;100.00;101124.84;6200876;22;20015;-93
2021/11/13 04:42:48;;;;;;;4.43;1.25;;;;;;;9.20;100.00;101124.84;6226808;22;20012;-93
2021/11/13 04:45:14;;;;;;;6.80;0.82;;;;;;;9.24;100.00;101134.28;6226308;22;20313;-93
2021/11/13 04:47:40;;;;;;;6.55;1.13;;;;;;;9.22;100.00;101133.59;6226604;22;20091;-93
2021/11/13 04:50:08;;;;;;;2.45;0.70;;;;;;;9.28;100.00;101150.91;6227454;22;20015;-92
2021/11/13 04:52:34;;;;;;;2.63;0.70;;;;;;;9.20;100.00;101136.41;6227370;22;20004;-93
2021/11/13 04:55:00;;;;;;;5.57;0.80;;;;;;;9.18;100.00;101126.84;6201181;22;20034;-93
2021/11/13 04:57:26;;;;;;;8.60;1.27;;;;;;;9.19;100.00;101139.28;6200802;22;20080;-94
2021/11/13 04:59:52;;;;;;;8.38;0.98;;;;;;;9.20;100.00;101140.94;6200353;22;20432;-93
2021/11/13 05:02:17;;;;;;;4.60;1.00;;;;;;;9.16;100.00;101151.16;6226013;22;20057;-93
2021/11/13 05:04:43;;;;;;;3.17;0.50;;;;;;;9.15;100.00;101138.72;6200547;22;20057;-93
2021/11/13 05:07:09;;;;;;;4.53;0.73;;;;;;;9.19;100.00;101140.09;6225532;22;20004;-93
2021/11/13 05:09:35;;;;;;;4.65;0.80;;;;;;;9.20;100.00;101141.78;6224828;22;20027;-93
2021/11/13 05:12:01;;;;;;;4.00;0.90;;;;;;;9.16;100.00;101137.75;6200353;22;20065;-94
2021/11/13 05:14:27;;;;;;;6.57;0.80;;;;;;;9.18;100.00;101151.84;6225349;22;20336;-93
2021/11/13 05:16:52;;;;;;;5.45;1.02;;;;;;;9.10;100.00;101134.84;6200156;22;19999;-92
2021/11/13 05:19:18;;;;;;;6.03;0.60;;;;;;;9.15;100.00;101143.25;6224906;22;20008;-93
2021/11/13 05:21:44;;;;;;;2.20;0.80;;;;;;;9.22;100.00;101155.06;6224978;22;20015;-92
2021/11/13 05:24:10;;;;;;;5.95;0.70;;;;;;;9.16;100.00;101145.78;6225066;22;20016;-92
2021/11/13 05:26:36;;;;;;;6.97;1.10;;;;;;;9.16;100.00;101148.47;6225088;22;20022;-93
2021/11/13 05:29:02;;;;;;;7.78;0.88;;;;;;;9.24;100.00;101164.63;6224924;22;20447;-92
2021/11/13 05:31:28;;;;;;;6.05;1.20;;;;;;;9.17;100.00;101147.47;6199833;22;20428;-92
2021/11/13 05:33:54;;;;;;;3.35;0.85;;;;;;;9.20;100.00;101152.50;6199397;22;20440;-93
2021/11/13 05:36:20;;;;;;;8.38;1.05;;;;;;;9.25;100.00;101158.25;6224821;22;20008;-92
2021/11/13 05:38:46;;;;;;;6.32;1.13;;;;;;;9.21;100.00;101154.22;6225585;22;20023;-93
2021/11/13 05:41:11;;;;;;;7.20;1.00;;;;;;;9.19;100.00;101150.84;6224500;22;20003;-93
2021/11/13 05:43:37;;;;;;;11.23;1.20;;;;;;;9.11;100.00;101145.41;6200596;22;20526;-93
2021/11/13 05:46:03;;;;;;;4.35;0.77;;;;;;;9.15;100.00;101154.81;6202743;22;20019;-94
2021/11/13 05:48:29;;;;;;;9.43;1.08;;;;;;;9.08;100.00;101150.28;6225216;22;20016;-93
2021/11/13 05:50:55;;;;;;;9.27;1.40;;;;;;;9.09;100.00;101154.63;6225084;22;20003;-93
2021/11/13 05:53:20;;;;;;;6.75;1.73;;;;;;;9.20;100.00;101173.13;6223494;22;20012;-94
2021/11/13 05:55:46;;;;;;;5.63;1.10;;;;;;;9.20;100.00;101179.34;6223755;22;20034;-94
2021/11/13 05:58:14;;;;;;;7.80;2.08;;;;;;;9.16;100.00;101172.63;6198962;22;20008;-93
2021/11/13 06:00:40;;;;;;;5.65;1.10;;;;;;;9.07;100.00;101168.19;6199651;22;20003;-93
2021/11/13 06:03:06;;;;;;;5.32;1.60;;;;;;;9.18;100.00;101189.41;6199248;22;20016;-92
2021/11/13 06:05:32;;;;;;;13.80;1.65;;;;;;;9.14;100.00;101182.66;6224103;22;20217;-93
2021/11/13 06:07:58;;;;;;;10.52;1.38;;;;;;;9.18;100.00;101194.78;6198768;22;20008;-92
2021/11/13 06:10:24;;;;;;;7.22;1.13;;;;;;;9.05;100.00;101175.56;6223608;22;20035;-94
2021/11/13 06:12:52;;;;;;;8.40;1.75;;;;;;;9.16;100.00;101194.09;6224873;22;20086;-93
2021/11/13 06:15:18;;;;;;;7.90;0.95;;;;;;;9.12;100.00;101191.88;6223658;22;20078;-94
2021/11/13 06:17:46;;;;;;;13.95;1.55;;;;;;;9.05;100.00;101177.38;6224545;22;20038;-93
2021/11/13 06:20:12;;;;;;;10.00;2.28;;;;;;;9.10;100.00;101185.81;6223696;22;20012;-93
2021/11/13 06:22:43;;;;;;;8.23;2.33;;;;;;;9.11;100.00;101198.25;6224685;22;20332;-93
2021/11/13 06:25:10;;;;;;;10.68;1.48;;;;;;;9.13;100.00;101197.09;6198998;22;20019;-93
2021/11/13 06:27:38;;;;;;;10.75;1.60;;;;;;;9.09;100.00;101193.00;6223927;22;20440;-94
2021/11/13 06:30:08;;;;;;;10.13;1.30;;;;;;;9.02;100.00;101175.84;6200216;22;20017;-95
2021/11/13 06:32:34;;;;;;;12.55;1.50;;;;;;;9.02;100.00;101181.22;6199019;22;20007;-91
2021/11/13 06:35:01;;;;;;;9.52;1.55;;;;;;;9.08;100.00;101196.72;6198960;22;20336;-93
2021/11/13 06:37:29;;;;;;;15.85;3.45;;;;;;;9.12;100.00;101194.53;6199947;22;20019;-93
2021/11/13 06:40:00;;;;;;;9.65;1.10;;;;;;;9.12;100.00;101198.06;6224373;22;20012;-94
2021/11/13 06:42:29;;;;;;;10.15;1.30;;;;;;;9.11;100.00;101199.06;6223694;22;20084;-92
2021/11/13 06:44:57;;;;;;;9.32;1.60;;;;;;;9.12;100.00;101191.88;6224106;22;20446;-95
2021/11/13 06:47:23;;;;;;;9.73;1.33;;;;;;;9.08;100.00;101195.88;6222123;22;20004;-94
2021/11/13 06:49:51;;;;;;;18.45;2.25;;;;;;;9.08;100.00;101204.75;6199164;22;20012;-94
2021/11/13 06:52:19;;;;;;;18.15;2.67;;;;;;;9.10;100.00;101207.25;6223606;22;19999;-94
2021/11/13 06:54:46;;;;;;;15.13;2.28;;;;;;;9.14;100.00;101217.53;6198807;22;20019;-96
2021/11/13 06:57:22;;;;;;;14.30;1.70;;;;;;;9.10;100.00;101212.63;6224061;22;20051;-95
2021/11/13 06:59:55;;;;;;;12.27;2.30;;;;;;;9.12;100.00;101224.88;6201463;22;20014;-93
2021/11/13 07:02:24;;;;;;;8.27;1.38;;;;;;;9.05;100.00;101206.88;6198441;22;20015;-93
2021/11/13 07:04:53;;;;;;;14.52;2.25;;;;;;;9.13;100.00;101229.28;6223909;22;20359;-96
2021/11/13 07:07:19;;;;;;;17.17;2.25;;;;;;;9.07;100.00;101208.41;6223539;22;20033;-96
2021/11/13 07:09:48;;;;;;;16.92;3.95;;;;;;;9.10;100.00;101218.00;6198795;22;20061;-95
2021/11/13 07:12:19;;;;;;;18.13;3.28;;;;;;;9.13;100.00;101217.69;6199925;22;20076;-95
2021/11/13 07:14:52;;;;;;;21.23;2.97;;;;;;;9.13;100.00;101220.38;6224301;22;20004;-94
2021/11/13 07:17:31;;;;;;;17.95;2.60;;;;;;;9.15;100.00;101229.94;6225111;22;20065;-95
2021/11/13 07:20:08;;;;;;;23.17;3.28;;;;;;;9.08;100.00;101223.53;6198609;22;20010;-94
2021/11/13 07:22:45;;;;;;;23.27;3.00;;;;;;;9.15;100.00;101221.91;6224166;22;20007;-94
2021/11/13 07:25:39;;;;;;;19.88;3.00;;;;;;;9.16;100.00;101237.00;6210833;22;20019;-94
2021/11/13 07:28:25;;;;;;;;;;;;;;;;;;;;;
2021/11/13 07:31:00;;;;;;;17.77;2.92;;;;;;;9.22;100.00;101246.28;6226065;22;20003;-94
2021/11/13 07:33:38;;;;;;;27.02;3.97;;;;;;;9.21;100.00;101245.44;6199073;22;20447;-96
2021/11/13 07:36:11;;;;;;;27.33;3.60;;;;;;;9.16;100.00;101239.69;6223914;22;20034;-95
2021/11/13 07:39:00;;;;;;;27.70;2.67;;;;;;;9.15;100.00;101240.69;6224665;22;20011;-93
2021/11/13 07:41:48;;;;;;;31.55;4.28;;;;;;;9.21;100.00;101249.97;6207932;22;20008;-94
2021/11/13 07:44:39;;;;;;;;;;;;;;;;;;;;;
2021/11/13 07:47:43;;;;;;;;;;;;;;;;;;;;;
2021/11/13 07:50:40;;;;;;;28.42;12.90;;;;;;;9.12;100.00;101243.66;6232047;22;20088;-94
2021/11/13 07:53:25;;;;;;;;;;;;;;;;;;;;;
2021/11/13 07:56:03;;;;;;;;;;;;;;;;;;;;;
2021/11/13 07:59:30;;;;;;;;;;;;;;;;;;;;;
2021/11/13 08:02:23;;;;;;;15.75;3.58;;;;;;;9.27;100.00;101286.06;6258312;22;20615;-94
2021/11/13 08:05:34;;;;;;;;;;;;;;;;;;;;;
2021/11/13 08:15:29;;;;;;;15.10;2.33;;;;;;;9.28;100.00;101287.75;6097361;23;20134;-93
2021/11/13 08:18:59;;;;;;;;;;;;;;;;;;;;;
2021/11/13 08:30:08;;;;;;;;;;;;;;;;;;;;;
2021/11/13 08:34:12;;;;;;;;;;;;;;;;;;;;;
2021/11/13 08:57:34;;;;;;;26.65;4.72;;;;;;;9.53;100.00;101324.53;6013671;23;20023;-95
2021/11/13 09:09:36;;;;;;;;;;;;;;;;;;;;;
2021/11/13 09:12:37;;;;;;;;;;;;;;;;;;;;;
2021/11/13 09:19:53;;;;;;;34.50;10.15;;;;;;;9.89;100.00;101357.53;6176783;22;20008;-93
2021/11/13 09:26:34;;;;;;;;;;;;;;;;;;;;;
2021/11/13 09:37:46;;;;;;;;;;;;;;;;;;;;;
2021/11/13 09:41:25;;;;;;;;;;;;;;;;;;;;;
2021/11/13 09:48:19;;;;;;;;;;;;;;;;;;;;;
2021/11/13 09:51:47;;;;;;;33.88;5.93;;;;;;;10.29;100.00;101341.88;6248504;22;19907;-95
2021/11/13 10:07:31;;;;;;;;;;;;;;;;;;;;;
2021/11/13 10:10:13;;;;;;;;;;;;;;;;;;;;;
2021/11/13 10:14:02;;;;;;;;;;;;;;;;;;;;;
2021/11/13 10:26:40;;;;;;;;;;;;;;;;;;;;;
2021/11/13 10:46:10;;;;;;;;;;;;;;;;;;;;;
2021/11/13 10:50:00;;;;;;;;;;;;;;;;;;;;;
2021/11/13 11:10:27;;;;;;;;;;;;;;;;;;;;;
2021/11/13 11:14:10;;;;;;;23.27;5.38;;;;;;;11.21;100.00;101348.25;5973914;23;20022;-94
2021/11/13 11:17:46;;;;;;;19.25;5.25;;;;;;;11.28;100.00;101354.69;6086897;23;20056;-94
2021/11/13 11:29:28;;;;;;;;;;;;;;;;;;;;;
2021/11/13 11:33:13;;;;;;;;;;;;;;;;;;;;;
2021/11/13 11:36:47;;;;;;;;;;;;;;;;;;;;;
2021/11/13 11:47:43;;;;;;;19.23;7.53;;;;;;;11.47;100.00;101361.59;6044656;23;20326;-93
2021/11/13 11:51:14;;;;;;;;;;;;;;;;;;;;;
2021/11/13 12:02:03;;;;;;;18.83;4.85;;;;;;;11.57;100.00;101372.22;5924529;24;20058;-94
2021/11/13 12:05:54;;;;;;;;;;;;;;;;;;;;;
2021/11/13 12:09:47;;;;;;;;;;;;;;;;;;;;;
2021/11/13 12:21:03;;;;;;;;;;;;;;;;;;;;;
2021/11/13 12:40:23;;;;;;;20.85;5.97;;;;;;;12.73;100.00;101372.72;5953735;24;20357;-94
2021/11/13 12:51:47;;;;;;;;;;;;;;;;;;;;;
2021/11/13 12:54:57;;;;;;;11.88;3.45;;;;;;;12.59;100.00;101397.72;6039985;23;20447;-92
2021/11/13 13:02:17;;;;;;;;;;;;;;;;;;;;;
2021/11/13 13:04:54;;;;;;;18.08;7.68;;;;;;;13.22;100.00;101387.00;6047441;22;20010;-93
2021/11/13 13:07:49;;;;;;;14.18;6.03;;;;;;;13.28;100.00;101379.03;6225009;22;20423;-95
2021/11/13 13:10:19;;;;;;;12.50;5.22;;;;;;;13.30;100.00;101390.50;6181446;22;20083;-92
2021/11/13 13:13:24;;;;;;;14.68;5.45;;;;;;;13.35;100.00;101393.50;6226425;22;20356;-93
2021/11/13 13:16:23;;;;;;;;;;;;;;;;;;;;;
2021/11/13 13:19:03;;;;;;;19.70;9.57;;;;;;;13.51;100.00;101375.53;6251118;22;20027;-93
2021/11/13 13:21:46;;;;;;;18.40;5.90;;;;;;;13.81;100.00;101377.31;6204632;22;20004;-94
2021/11/13 13:25:02;;;;;;;10.40;3.45;;;;;;;13.93;100.00;101388.53;6224774;22;20250;-92
2021/11/13 13:27:30;;;;;;;17.15;4.30;;;;;;;14.03;100.00;101381.00;6124496;22;20009;-93
2021/11/13 14:18:04;;;;;;;12.80;4.83;;;;;;;12.75;100.00;101384.19;6280812;22;20620;-94
2021/11/13 14:20:35;;;;;;;11.05;4.05;;;;;;;12.74;100.00;101384.34;6230261;22;20019;-93
2021/11/13 14:23:16;;;;;;;12.25;3.42;;;;;;;12.70;100.00;101397.38;6251992;22;20015;-93
2021/11/13 14:26:25;;;;;;;8.27;3.30;;;;;;;12.56;100.00;101381.88;6255208;22;20004;-94
2021/11/13 14:29:24;;;;;;;12.32;3.83;;;;;;;12.48;100.00;101390.00;6102882;23;20013;-93
2021/11/13 15:49:07;;;;;;;10.90;4.15;;;;;;;12.41;100.00;101418.66;6220386;23;20023;-95
2021/11/13 15:52:12;;;;;;;9.95;4.32;;;;;;;12.32;100.00;101407.06;6161166;23;20082;-92
2021/11/13 15:54:52;;;;;;;7.95;3.15;;;;;;;12.38;100.00;101421.72;6164883;23;20012;-94
2021/11/13 15:57:18;;;;;;;7.32;2.92;;;;;;;12.22;100.00;101404.53;6163033;23;20005;-92
2021/11/13 15:59:54;;;;;;;9.07;4.10;;;;;;;12.31;100.00;101416.19;6185842;23;20088;-89
2021/11/13 16:02:19;;;;;;;7.55;3.97;;;;;;;12.23;100.00;101406.25;6221819;22;20033;-92
2021/11/13 16:04:45;;;;;;;12.10;4.20;;;;;;;12.18;100.00;101392.44;6222883;22;20546;-91
2021/11/13 16:07:11;;;;;;;9.15;4.88;;;;;;;12.28;100.00;101408.44;6222643;22;20099;-90
2021/11/13 16:09:37;;;;;;;11.00;5.43;;;;;;;12.24;100.00;101402.53;6223058;22;20061;-90
2021/11/13 16:12:03;;;;;;;14.07;5.35;;;;;;;12.23;100.00;101414.31;6221992;22;20008;-92
2021/11/13 16:14:29;;;;;;;17.73;6.55;;;;;;;12.27;100.00;101410.25;6224495;22;20014;-92
2021/11/13 16:16:57;;;;;;;15.98;6.43;;;;;;;12.21;100.00;101397.47;6248624;22;20004;-95
2021/11/13 16:19:30;;;;;;;10.60;5.53;;;;;;;12.32;100.00;101412.44;6225167;22;20439;-92
2021/11/13 16:21:56;;;;;;;10.98;4.28;;;;;;;12.22;100.00;101395.63;6251234;22;20031;-94
2021/11/13 16:24:24;;;;;;;16.85;7.25;;;;;;;12.22;100.00;101401.00;6251188;22;20015;-93
2021/11/13 16:26:50;;;;;;;14.43;6.53;;;;;;;12.24;100.00;101404.38;6226090;22;20011;-90
2021/11/13 16:29:23;;;;;;;11.75;6.20;;;;;;;12.16;100.00;101399.84;6226222;22;20431;-96
2021/11/13 16:31:49;;;;;;;27.90;12.45;;;;;;;12.18;100.00;101400.50;6251069;22;20375;-91
2021/11/13 16:34:21;;;;;;;27.15;12.20;;;;;;;12.19;100.00;101402.19;6225444;22;20146;-90
2021/11/13 16:36:52;;;;;;;27.92;12.90;;;;;;;12.22;100.00;101415.31;6225757;22;20003;-93
2021/11/13 16:39:23;;;;;;;21.15;9.43;;;;;;;12.08;100.00;101389.06;6225702;22;20021;-92
2021/11/13 16:41:53;;;;;;;24.30;10.15;;;;;;;12.13;100.00;101407.44;6250193;22;20416;-91
2021/11/13 16:44:19;;;;;;;26.05;12.23;;;;;;;12.15;100.00;101421.59;6224253;22;20035;-90
2021/11/13 16:46:59;;;;;;;176.88;85.95;;;;;;;12.03;100.00;101402.22;6225213;22;20344;-91
2021/11/13 16:49:25;;;;;;;54.28;18.83;;;;;;;12.02;100.00;101401.38;6224610;22;20004;-90
2021/11/13 16:52:02;;;;;;;53.63;21.90;;;;;;;12.12;100.00;101414.69;6225194;22;20008;-91
2021/11/13 16:54:28;;;;;;;31.80;13.13;;;;;;;12.10;100.00;101408.63;6225254;22;20012;-92
2021/11/13 16:57:07;;;;;;;462.60;192.68;;;;;;;12.03;100.00;101408.44;6225379;22;20020;-94
2021/11/13 16:59:33;;;;;;;136.25;51.85;;;;;;;12.05;100.00;101416.38;6225203;22;20101;-93
2021/11/13 17:01:59;;;;;;;18.92;8.30;;;;;;;12.08;100.00;101421.41;6224852;22;20055;-93
2021/11/13 17:04:27;;;;;;;24.88;10.35;;;;;;;12.12;100.00;101422.78;6224484;22;20008;-93
2021/11/13 17:06:53;;;;;;;36.25;14.18;;;;;;;11.97;100.00;101416.38;6225061;22;20004;-92
2021/11/13 17:09:31;;;;;;;68.20;23.70;;;;;;;11.94;100.00;101420.25;6224993;22;20015;-91
2021/11/13 17:11:57;;;;;;;84.38;37.10;;;;;;;11.91;100.00;101417.91;6225082;22;20424;-92
2021/11/13 17:14:25;;;;;;;186.75;68.57;;;;;;;11.94;100.00;101430.19;6226130;22;20011;-92
2021/11/13 17:16:54;;;;;;;68.35;33.58;;;;;;;11.98;100.00;101420.75;6224133;22;20010;-91
2021/11/13 17:19:20;;;;;;;148.65;54.65;;;;;;;11.92;100.00;101416.03;6250111;22;20015;-93
2021/11/13 17:21:50;;;;;;;177.52;58.00;;;;;;;11.88;100.00;101419.06;6224438;22;20019;-89
2021/11/13 17:24:21;;;;;;;128.98;47.97;;;;;;;12.02;100.00;101444.50;6224363;22;20018;-92
2021/11/13 17:26:50;;;;;;;237.13;74.00;;;;;;;11.91;100.00;101425.97;6225319;22;20011;-94
2021/11/13 17:29:18;;;;;;;204.40;66.13;;;;;;;11.91;100.00;101431.38;6223735;22;20019;-91
2021/11/13 17:31:45;;;;;;;220.88;72.45;;;;;;;11.91;100.00;101431.38;6224104;22;20007;-89
2021/11/13 17:34:20;;;;;;;310.05;120.75;;;;;;;11.90;100.00;101428.84;6224648;22;20032;-92
2021/11/13 17:36:46;;;;;;;262.85;113.38;;;;;;;11.95;100.00;101437.25;6223217;22;20050;-89
2021/11/13 17:39:15;;;;;;;214.35;95.72;;;;;;;11.98;100.00;101447.69;6223894;22;20011;-90
2021/11/13 17:41:41;;;;;;;136.88;71.72;;;;;;;11.90;100.00;101445.00;6223228;22;20462;-91
2021/11/13 17:44:09;;;;;;;174.20;74.70;;;;;;;11.84;100.00;101431.16;6224305;22;20011;-89
2021/11/13 17:46:35;;;;;;;181.00;78.00;;;;;;;11.96;100.00;101455.09;6249740;22;20085;-93
2021/11/13 17:49:04;;;;;;;205.82;76.70;;;;;;;11.93;100.00;101447.34;6249944;22;20007;-92
2021/11/13 17:51:34;;;;;;;112.85;48.95;;;;;;;11.98;100.00;101453.09;6224177;22;20066;-91
2021/11/13 17:54:00;;;;;;;58.75;28.42;;;;;;;12.06;100.00;101466.56;6224347;22;20008;-90
2021/11/13 17:56:42;;;;;;;44.03;22.52;;;;;;;11.95;100.00;101453.44;6224204;22;20379;-91
2021/11/13 17:59:08;;;;;;;41.20;22.33;;;;;;;11.93;100.00;101453.56;6224360;22;20038;-92
2021/11/13 18:01:37;;;;;;;201.05;59.97;;;;;;;12.03;100.00;101469.59;6224542;22;20016;-90
2021/11/13 18:04:10;;;;;;;46.15;25.85;;;;;;;11.94;100.00;101454.44;6223028;22;20010;-90
2021/11/13 18:06:39;;;;;;;37.35;21.15;;;;;;;11.91;100.00;101455.63;6223694;22;20026;-91
2021/11/13 18:09:06;;;;;;;93.05;33.90;;;;;;;12.00;100.00;101481.56;6221407;22;20420;-92
2021/11/13 18:11:37;;;;;;;55.15;22.15;;;;;;;12.05;100.00;101489.16;6247542;22;20000;-91
2021/11/13 18:14:08;;;;;;;67.35;26.30;;;;;;;11.99;100.00;101481.75;6249107;22;20011;-94
2021/11/13 18:16:42;;;;;;;43.30;22.85;;;;;;;11.98;100.00;101490.81;6224042;22;20007;-96
2021/11/13 18:19:08;;;;;;;42.72;25.98;;;;;;;11.90;100.00;101478.16;6224081;22;20071;-93
2021/11/13 18:21:35;;;;;;;62.83;36.85;;;;;;;11.87;100.00;101473.13;6223546;22;20004;-93
2021/11/13 18:24:02;;;;;;;101.53;48.97;;;;;;;11.88;100.00;101478.34;6223820;22;20054;-90
2021/11/13 18:26:29;;;;;;;352.88;107.95;;;;;;;11.92;100.00;101488.81;6223829;22;20003;-94
2021/11/13 18:28:55;;;;;;;155.20;52.28;;;;;;;11.85;100.00;101478.66;6223811;22;20010;-91
2021/11/13 18:31:42;;;;;;;142.30;46.38;;;;;;;11.86;100.00;101488.44;6223891;22;20011;-92
2021/11/13 18:34:08;;;;;;;145.25;42.90;;;;;;;11.84;100.00;101473.44;6224146;22;20011;-92
2021/11/13 18:36:35;;;;;;;151.38;52.60;;;;;;;11.90;100.00;101480.03;6223933;22;20343;-90
2021/11/13 18:39:05;;;;;;;188.55;76.25;;;;;;;11.96;100.00;101509.00;6223789;22;20007;-94
2021/11/13 18:41:31;;;;;;;172.18;65.00;;;;;;;11.85;100.00;101496.66;6223190;22;20012;-95
2021/11/13 18:43:58;;;;;;;500.30;149.90;;;;;;;11.85;100.00;101500.22;6223564;22;20011;-92
2021/11/13 18:46:26;;;;;;;445.27;124.72;;;;;;;11.89;100.00;101508.84;6223706;22;20004;-89
2021/11/13 18:48:53;;;;;;;369.52;118.03;;;;;;;11.75;100.00;101483.34;6223614;22;20062;-90
2021/11/13 18:51:30;;;;;;;436.70;151.85;;;;;;;11.75;100.00;101490.56;6248883;22;20018;-92
2021/11/13 18:53:56;;;;;;;180.02;75.00;;;;;;;11.80;100.00;101505.25;6223866;22;20011;-90
2021/11/13 18:56:24;;;;;;;95.53;45.00;;;;;;;11.78;100.00;101499.19;6223975;22;20015;-91
2021/11/13 18:58:50;;;;;;;132.57;64.30;;;;;;;11.75;100.00;101491.44;6248744;22;20058;-91
2021/11/13 19:01:17;;;;;;;111.57;50.42;;;;;;;11.84;100.00;101511.16;6222017;22;20073;-91
2021/11/13 19:03:46;;;;;;;112.57;54.17;;;;;;;11.79;100.00;101498.16;6223778;22;20011;-90
2021/11/13 19:06:20;;;;;;;118.80;54.83;;;;;;;11.70;100.00;101484.88;6223654;22;20455;-89
2021/11/13 19:08:46;;;;;;;66.95;32.88;;;;;;;11.72;100.00;101491.75;6224156;22;20004;-91
2021/11/13 19:11:13;;;;;;;64.72;31.08;;;;;;;11.80;100.00;101513.34;6223990;22;20066;-90
2021/11/13 19:13:40;;;;;;;62.60;24.85;;;;;;;11.68;100.00;101495.78;6220529;22;20015;-91
2021/11/13 19:16:07;;;;;;;61.10;24.70;;;;;;;11.76;100.00;101509.28;6224034;22;20014;-91
2021/11/13 19:18:36;;;;;;;60.72;24.55;;;;;;;11.68;100.00;101503.03;6223948;22;20003;-91
2021/11/13 19:21:07;;;;;;;44.47;16.48;;;;;;;11.76;100.00;101505.75;6224001;22;20000;-91
2021/11/13 19:23:36;;;;;;;39.38;14.98;;;;;;;11.70;100.00;101509.94;6224416;22;20003;-93
2021/11/13 19:26:08;;;;;;;38.25;13.68;;;;;;;11.71;100.00;101510.78;6223850;22;20011;-89
2021/11/13 19:28:36;;;;;;;41.17;14.52;;;;;;;11.66;100.00;101508.59;6223453;22;20011;-89
2021/11/13 19:31:11;;;;;;;48.42;16.92;;;;;;;11.71;100.00;101519.72;6224122;22;20014;-88
2021/11/13 19:33:37;;;;;;;67.78;27.10;;;;;;;11.61;100.00;101502.84;6224067;22;20004;-91
2021/11/13 19:36:04;;;;;;;46.38;21.45;;;;;;;11.58;100.00;101497.78;6223349;22;20008;-93
2021/11/13 19:38:38;;;;;;;60.08;29.15;;;;;;;11.44;100.00;101478.56;6224145;22;20095;-91
2021/11/13 19:41:04;;;;;;;60.28;34.20;;;;;;;11.44;100.00;101494.72;6222833;22;20332;-90
2021/11/13 19:43:35;;;;;;;72.68;38.67;;;;;;;11.21;100.00;101472.91;6223598;22;20037;-91
2021/11/13 19:46:02;;;;;;;64.72;31.70;;;;;;;11.28;100.00;101493.84;6223746;22;20023;-91
2021/11/13 19:48:31;;;;;;;54.50;23.20;;;;;;;11.30;100.00;101519.59;6223878;22;20011;-91
2021/11/13 19:50:57;;;;;;;43.30;16.92;;;;;;;11.14;100.00;101506.03;6223591;22;20007;-92
2021/11/13 19:53:29;;;;;;;44.45;15.85;;;;;;;11.11;100.00;101503.66;6224125;22;20444;-94
2021/11/13 19:55:55;;;;;;;40.58;15.13;;;;;;;11.04;100.00;101514.25;6225830;22;20071;-91
2021/11/13 19:58:34;;;;;;;42.92;15.95;;;;;;;10.96;100.00;101531.19;6225938;22;20000;-91
2021/11/13 20:01:03;;;;;;;46.72;17.27;;;;;;;10.75;100.00;101510.03;6250901;22;20013;-92